sensor_id;sensor_type;location;lat;lon;timestamp;P1;durP1;ratioP1;P2;durP2;ratioP2
14121;SDS011;7139;48.114;11.442;2023-06-04T00:02:20;7.40;;;6.77;;
14121;SDS011;7139;48.114;11.442;2023-06-04T00:04:47;8.80;;;6.70;;
14121;SDS011;7139;48.114;11.442;2023-06-04T00:07:14;11.03;;;7.20;;
14121;SDS011;7139;48.114;11.442;2023-06-04T00:09:40;7.77;;;7.07;;
14121;SDS011;7139;48.114;11.442;2023-06-04T00:12:09;7.40;;;6.70;;
14121;SDS011;7139;48.114;11.442;2023-06-04T00:14:35;7.37;;;6.77;;
14121;SDS011;7139;48.114;11.442;2023-06-04T00:17:02;7.80;;;6.87;;
14121;SDS011;7139;48.114;11.442;2023-06-04T00:19:29;7.17;;;6.57;;
14121;SDS011;7139;48.114;11.442;2023-06-04T00:21:58;9.07;;;7.03;;
14121;SDS011;7139;48.114;11.442;2023-06-04T00:24:25;7.80;;;7.00;;
14121;SDS011;7139;48.114;11.442;2023-06-04T00:26:52;7.97;;;7.17;;
14121;SDS011;7139;48.114;11.442;2023-06-04T00:29:20;9.40;;;7.27;;
14121;SDS011;7139;48.114;11.442;2023-06-04T00:31:47;8.13;;;6.80;;
14121;SDS011;7139;48.114;11.442;2023-06-04T00:34:14;7.70;;;7.00;;
14121;SDS011;7139;48.114;11.442;2023-06-04T00:36:42;8.60;;;6.90;;
14121;SDS011;7139;48.114;11.442;2023-06-04T00:39:09;8.57;;;6.90;;
14121;SDS011;7139;48.114;11.442;2023-06-04T00:41:36;7.73;;;7.00;;
14121;SDS011;7139;48.114;11.442;2023-06-04T00:44:03;7.43;;;6.73;;
14121;SDS011;7139;48.114;11.442;2023-06-04T00:46:32;7.57;;;6.87;;
14121;SDS011;7139;48.114;11.442;2023-06-04T00:49:00;7.53;;;6.90;;
14121;SDS011;7139;48.114;11.442;2023-06-04T00:51:27;7.27;;;6.57;;
14121;SDS011;7139;48.114;11.442;2023-06-04T00:53:57;6.97;;;6.37;;
14121;SDS011;7139;48.114;11.442;2023-06-04T00:56:26;7.10;;;6.50;;
14121;SDS011;7139;48.114;11.442;2023-06-04T00:58:53;7.43;;;6.73;;
14121;SDS011;7139;48.114;11.442;2023-06-04T01:01:22;9.07;;;6.80;;
14121;SDS011;7139;48.114;11.442;2023-06-04T01:03:54;7.00;;;6.30;;
14121;SDS011;7139;48.114;11.442;2023-06-04T01:06:25;6.57;;;5.97;;
14121;SDS011;7139;48.114;11.442;2023-06-04T01:08:57;6.70;;;6.00;;
14121;SDS011;7139;48.114;11.442;2023-06-04T01:11:34;7.87;;;6.73;;
14121;SDS011;7139;48.114;11.442;2023-06-04T01:14:03;7.47;;;6.43;;
14121;SDS011;7139;48.114;11.442;2023-06-04T01:16:34;7.03;;;6.20;;
14121;SDS011;7139;48.114;11.442;2023-06-04T01:19:06;7.40;;;6.43;;
14121;SDS011;7139;48.114;11.442;2023-06-04T01:21:46;7.30;;;6.60;;
14121;SDS011;7139;48.114;11.442;2023-06-04T01:24:16;7.07;;;5.97;;
14121;SDS011;7139;48.114;11.442;2023-06-04T01:26:47;6.70;;;6.03;;
14121;SDS011;7139;48.114;11.442;2023-06-04T01:29:16;6.70;;;6.00;;
14121;SDS011;7139;48.114;11.442;2023-06-04T01:31:43;7.83;;;6.03;;
14121;SDS011;7139;48.114;11.442;2023-06-04T01:34:12;6.63;;;5.97;;
14121;SDS011;7139;48.114;11.442;2023-06-04T01:36:38;7.80;;;6.03;;
14121;SDS011;7139;48.114;11.442;2023-06-04T01:39:05;7.20;;;6.53;;
14121;SDS011;7139;48.114;11.442;2023-06-04T01:41:32;7.00;;;6.30;;
14121;SDS011;7139;48.114;11.442;2023-06-04T01:43:59;6.30;;;5.80;;
14121;SDS011;7139;48.114;11.442;2023-06-04T01:46:25;6.73;;;6.07;;
14121;SDS011;7139;48.114;11.442;2023-06-04T01:48:52;7.10;;;6.50;;
14121;SDS011;7139;48.114;11.442;2023-06-04T01:51:20;7.07;;;6.33;;
14121;SDS011;7139;48.114;11.442;2023-06-04T01:53:47;6.10;;;5.57;;
14121;SDS011;7139;48.114;11.442;2023-06-04T01:56:14;8.40;;;5.87;;
14121;SDS011;7139;48.114;11.442;2023-06-04T01:58:40;5.93;;;5.43;;
14121;SDS011;7139;48.114;11.442;2023-06-04T02:01:07;6.90;;;6.20;;
14121;SDS011;7139;48.114;11.442;2023-06-04T02:03:35;6.93;;;5.80;;
14121;SDS011;7139;48.114;11.442;2023-06-04T02:06:03;6.53;;;5.83;;
14121;SDS011;7139;48.114;11.442;2023-06-04T02:08:33;9.40;;;5.63;;
14121;SDS011;7139;48.114;11.442;2023-06-04T02:11:01;6.83;;;5.70;;
14121;SDS011;7139;48.114;11.442;2023-06-04T02:13:27;7.10;;;6.40;;
14121;SDS011;7139;48.114;11.442;2023-06-04T02:15:54;7.83;;;5.70;;
14121;SDS011;7139;48.114;11.442;2023-06-04T02:18:21;6.93;;;6.33;;
14121;SDS011;7139;48.114;11.442;2023-06-04T02:20:50;7.70;;;6.80;;
14121;SDS011;7139;48.114;11.442;2023-06-04T02:23:17;7.07;;;6.37;;
14121;SDS011;7139;48.114;11.442;2023-06-04T02:25:46;7.80;;;6.30;;
14121;SDS011;7139;48.114;11.442;2023-06-04T02:28:14;6.60;;;6.00;;
14121;SDS011;7139;48.114;11.442;2023-06-04T02:30:41;7.77;;;6.03;;
14121;SDS011;7139;48.114;11.442;2023-06-04T02:33:09;7.00;;;6.17;;
14121;SDS011;7139;48.114;11.442;2023-06-04T02:35:35;6.60;;;5.67;;
14121;SDS011;7139;48.114;11.442;2023-06-04T02:38:02;6.73;;;6.03;;
14121;SDS011;7139;48.114;11.442;2023-06-04T02:40:30;7.07;;;6.10;;
14121;SDS011;7139;48.114;11.442;2023-06-04T02:42:58;6.97;;;6.23;;
14121;SDS011;7139;48.114;11.442;2023-06-04T02:45:25;6.40;;;5.63;;
14121;SDS011;7139;48.114;11.442;2023-06-04T02:47:51;6.60;;;6.00;;
14121;SDS011;7139;48.114;11.442;2023-06-04T02:50:18;7.83;;;7.07;;
14121;SDS011;7139;48.114;11.442;2023-06-04T02:52:45;6.90;;;6.30;;
14121;SDS011;7139;48.114;11.442;2023-06-04T02:55:12;6.50;;;5.90;;
14121;SDS011;7139;48.114;11.442;2023-06-04T02:57:39;6.97;;;6.27;;
14121;SDS011;7139;48.114;11.442;2023-06-04T03:00:09;8.90;;;6.20;;
14121;SDS011;7139;48.114;11.442;2023-06-04T03:02:39;8.10;;;6.40;;
14121;SDS011;7139;48.114;11.442;2023-06-04T03:05:07;6.67;;;6.07;;
14121;SDS011;7139;48.114;11.442;2023-06-04T03:07:35;6.77;;;6.13;;
14121;SDS011;7139;48.114;11.442;2023-06-04T03:10:02;7.10;;;6.40;;
14121;SDS011;7139;48.114;11.442;2023-06-04T03:12:30;7.00;;;6.20;;
14121;SDS011;7139;48.114;11.442;2023-06-04T03:14:56;6.97;;;6.27;;
14121;SDS011;7139;48.114;11.442;2023-06-04T03:17:25;7.33;;;5.63;;
14121;SDS011;7139;48.114;11.442;2023-06-04T03:19:52;9.57;;;6.47;;
14121;SDS011;7139;48.114;11.442;2023-06-04T03:22:21;7.30;;;6.47;;
14121;SDS011;7139;48.114;11.442;2023-06-04T03:24:47;6.87;;;6.20;;
14121;SDS011;7139;48.114;11.442;2023-06-04T03:27:14;7.87;;;6.20;;
14121;SDS011;7139;48.114;11.442;2023-06-04T03:29:41;6.43;;;5.83;;
14121;SDS011;7139;48.114;11.442;2023-06-04T03:32:08;6.80;;;6.17;;
14121;SDS011;7139;48.114;11.442;2023-06-04T03:34:36;6.73;;;5.97;;
14121;SDS011;7139;48.114;11.442;2023-06-04T03:37:03;7.03;;;6.30;;
14121;SDS011;7139;48.114;11.442;2023-06-04T03:39:30;7.20;;;6.60;;
14121;SDS011;7139;48.114;11.442;2023-06-04T03:41:57;6.70;;;6.00;;
14121;SDS011;7139;48.114;11.442;2023-06-04T03:44:23;7.03;;;6.23;;
14121;SDS011;7139;48.114;11.442;2023-06-04T03:46:50;7.43;;;6.30;;
14121;SDS011;7139;48.114;11.442;2023-06-04T03:49:17;7.30;;;6.57;;
14121;SDS011;7139;48.114;11.442;2023-06-04T03:51:45;7.40;;;6.70;;
14121;SDS011;7139;48.114;11.442;2023-06-04T03:54:12;6.87;;;5.87;;
14121;SDS011;7139;48.114;11.442;2023-06-04T03:56:41;7.90;;;6.30;;
14121;SDS011;7139;48.114;11.442;2023-06-04T03:59:09;8.23;;;6.80;;
14121;SDS011;7139;48.114;11.442;2023-06-04T04:01:35;7.40;;;6.70;;
14121;SDS011;7139;48.114;11.442;2023-06-04T04:04:02;7.30;;;6.70;;
14121;SDS011;7139;48.114;11.442;2023-06-04T04:06:30;7.33;;;6.63;;
14121;SDS011;7139;48.114;11.442;2023-06-04T04:08:58;7.17;;;6.47;;
14121;SDS011;7139;48.114;11.442;2023-06-04T04:11:25;7.57;;;6.77;;
14121;SDS011;7139;48.114;11.442;2023-06-04T04:13:51;6.60;;;6.00;;
14121;SDS011;7139;48.114;11.442;2023-06-04T04:16:18;7.27;;;6.47;;
14121;SDS011;7139;48.114;11.442;2023-06-04T04:18:45;6.70;;;6.10;;
14121;SDS011;7139;48.114;11.442;2023-06-04T04:21:13;7.07;;;6.47;;
14121;SDS011;7139;48.114;11.442;2023-06-04T04:23:40;6.97;;;6.37;;
14121;SDS011;7139;48.114;11.442;2023-06-04T04:26:08;7.00;;;6.30;;
14121;SDS011;7139;48.114;11.442;2023-06-04T04:28:36;7.33;;;6.27;;
14121;SDS011;7139;48.114;11.442;2023-06-04T04:31:03;6.97;;;6.13;;
14121;SDS011;7139;48.114;11.442;2023-06-04T04:33:31;6.73;;;6.13;;
14121;SDS011;7139;48.114;11.442;2023-06-04T04:36:01;6.93;;;6.20;;
14121;SDS011;7139;48.114;11.442;2023-06-04T04:38:28;6.43;;;5.83;;
14121;SDS011;7139;48.114;11.442;2023-06-04T04:40:58;7.53;;;6.20;;
14121;SDS011;7139;48.114;11.442;2023-06-04T04:43:30;6.40;;;5.80;;
14121;SDS011;7139;48.114;11.442;2023-06-04T04:45:57;6.83;;;5.93;;
14121;SDS011;7139;48.114;11.442;2023-06-04T04:48:24;5.90;;;5.40;;
14121;SDS011;7139;48.114;11.442;2023-06-04T04:50:51;7.07;;;6.07;;
14121;SDS011;7139;48.114;11.442;2023-06-04T04:53:18;8.13;;;6.10;;
14121;SDS011;7139;48.114;11.442;2023-06-04T04:55:45;6.73;;;6.13;;
14121;SDS011;7139;48.114;11.442;2023-06-04T04:58:12;7.43;;;6.40;;
14121;SDS011;7139;48.114;11.442;2023-06-04T05:00:40;7.53;;;6.73;;
14121;SDS011;7139;48.114;11.442;2023-06-04T05:03:07;6.53;;;5.93;;
14121;SDS011;7139;48.114;11.442;2023-06-04T05:05:34;7.30;;;6.20;;
14121;SDS011;7139;48.114;11.442;2023-06-04T05:08:01;7.63;;;6.37;;
14121;SDS011;7139;48.114;11.442;2023-06-04T05:10:28;6.73;;;6.10;;
14121;SDS011;7139;48.114;11.442;2023-06-04T05:12:55;7.90;;;6.13;;
14121;SDS011;7139;48.114;11.442;2023-06-04T05:15:23;6.37;;;5.70;;
14121;SDS011;7139;48.114;11.442;2023-06-04T05:17:52;7.13;;;6.43;;
14121;SDS011;7139;48.114;11.442;2023-06-04T05:20:21;6.40;;;5.80;;
14121;SDS011;7139;48.114;11.442;2023-06-04T05:22:48;6.53;;;5.90;;
14121;SDS011;7139;48.114;11.442;2023-06-04T05:25:16;6.57;;;5.90;;
14121;SDS011;7139;48.114;11.442;2023-06-04T05:27:43;6.93;;;6.23;;
14121;SDS011;7139;48.114;11.442;2023-06-04T05:30:10;7.23;;;6.53;;
14121;SDS011;7139;48.114;11.442;2023-06-04T05:32:38;6.10;;;5.50;;
14121;SDS011;7139;48.114;11.442;2023-06-04T05:35:07;6.77;;;6.00;;
14121;SDS011;7139;48.114;11.442;2023-06-04T05:37:35;6.60;;;6.00;;
14121;SDS011;7139;48.114;11.442;2023-06-04T05:40:06;5.87;;;5.37;;
14121;SDS011;7139;48.114;11.442;2023-06-04T05:42:34;8.20;;;5.77;;
14121;SDS011;7139;48.114;11.442;2023-06-04T05:45:01;6.33;;;5.73;;
14121;SDS011;7139;48.114;11.442;2023-06-04T05:47:27;6.53;;;5.83;;
14121;SDS011;7139;48.114;11.442;2023-06-04T05:49:55;6.03;;;5.37;;
14121;SDS011;7139;48.114;11.442;2023-06-04T05:52:23;6.43;;;5.07;;
14121;SDS011;7139;48.114;11.442;2023-06-04T05:54:50;6.73;;;5.17;;
14121;SDS011;7139;48.114;11.442;2023-06-04T05:57:16;5.93;;;4.90;;
14121;SDS011;7139;48.114;11.442;2023-06-04T05:59:43;7.37;;;4.70;;
14121;SDS011;7139;48.114;11.442;2023-06-04T06:02:10;6.07;;;5.10;;
14121;SDS011;7139;48.114;11.442;2023-06-04T06:04:37;5.43;;;4.67;;
14121;SDS011;7139;48.114;11.442;2023-06-04T06:07:04;6.53;;;4.43;;
14121;SDS011;7139;48.114;11.442;2023-06-04T06:09:32;6.40;;;4.20;;
14121;SDS011;7139;48.114;11.442;2023-06-04T06:11:59;4.20;;;3.80;;
14121;SDS011;7139;48.114;11.442;2023-06-04T06:14:26;4.70;;;3.97;;
14121;SDS011;7139;48.114;11.442;2023-06-04T06:16:52;4.30;;;3.90;;
14121;SDS011;7139;48.114;11.442;2023-06-04T06:19:19;4.20;;;3.80;;
14121;SDS011;7139;48.114;11.442;2023-06-04T06:21:46;4.77;;;3.80;;
14121;SDS011;7139;48.114;11.442;2023-06-04T06:24:17;5.03;;;4.00;;
14121;SDS011;7139;48.114;11.442;2023-06-04T06:26:47;6.30;;;3.93;;
14121;SDS011;7139;48.114;11.442;2023-06-04T06:29:14;5.53;;;4.27;;
14121;SDS011;7139;48.114;11.442;2023-06-04T06:31:41;4.97;;;3.87;;
14121;SDS011;7139;48.114;11.442;2023-06-04T06:34:07;5.10;;;4.30;;
14121;SDS011;7139;48.114;11.442;2023-06-04T06:36:34;4.13;;;3.73;;
14121;SDS011;7139;48.114;11.442;2023-06-04T06:39:01;6.23;;;3.70;;
14121;SDS011;7139;48.114;11.442;2023-06-04T06:41:28;4.50;;;3.60;;
14121;SDS011;7139;48.114;11.442;2023-06-04T06:43:57;4.00;;;3.60;;
14121;SDS011;7139;48.114;11.442;2023-06-04T06:46:23;5.40;;;3.53;;
14121;SDS011;7139;48.114;11.442;2023-06-04T06:48:50;5.80;;;3.53;;
14121;SDS011;7139;48.114;11.442;2023-06-04T06:51:17;5.43;;;3.77;;
14121;SDS011;7139;48.114;11.442;2023-06-04T06:53:44;5.63;;;3.67;;
14121;SDS011;7139;48.114;11.442;2023-06-04T06:56:10;5.17;;;3.80;;
14121;SDS011;7139;48.114;11.442;2023-06-04T06:58:38;4.47;;;3.93;;
14121;SDS011;7139;48.114;11.442;2023-06-04T07:01:06;5.87;;;3.73;;
14121;SDS011;7139;48.114;11.442;2023-06-04T07:03:33;4.90;;;3.33;;
14121;SDS011;7139;48.114;11.442;2023-06-04T07:05:59;5.23;;;3.60;;
14121;SDS011;7139;48.114;11.442;2023-06-04T07:08:26;5.10;;;3.60;;
14121;SDS011;7139;48.114;11.442;2023-06-04T07:10:53;4.47;;;3.57;;
14121;SDS011;7139;48.114;11.442;2023-06-04T07:13:20;3.50;;;3.20;;
14121;SDS011;7139;48.114;11.442;2023-06-04T07:15:47;5.23;;;3.47;;
14121;SDS011;7139;48.114;11.442;2023-06-04T07:18:15;3.87;;;3.40;;
14121;SDS011;7139;48.114;11.442;2023-06-04T07:20:42;5.73;;;3.20;;
14121;SDS011;7139;48.114;11.442;2023-06-04T07:23:09;6.83;;;3.80;;
14121;SDS011;7139;48.114;11.442;2023-06-04T07:25:35;4.70;;;3.53;;
14121;SDS011;7139;48.114;11.442;2023-06-04T07:28:02;6.13;;;3.70;;
14121;SDS011;7139;48.114;11.442;2023-06-04T07:30:29;5.73;;;3.70;;
14121;SDS011;7139;48.114;11.442;2023-06-04T07:32:56;3.60;;;3.30;;
14121;SDS011;7139;48.114;11.442;2023-06-04T07:35:25;7.47;;;3.53;;
14121;SDS011;7139;48.114;11.442;2023-06-04T07:37:51;5.60;;;3.93;;
14121;SDS011;7139;48.114;11.442;2023-06-04T07:40:18;5.00;;;3.80;;
14121;SDS011;7139;48.114;11.442;2023-06-04T07:42:45;5.67;;;4.07;;
14121;SDS011;7139;48.114;11.442;2023-06-04T07:45:12;4.60;;;3.37;;
14121;SDS011;7139;48.114;11.442;2023-06-04T07:47:39;6.43;;;3.73;;
14121;SDS011;7139;48.114;11.442;2023-06-04T07:50:06;4.27;;;3.80;;
14121;SDS011;7139;48.114;11.442;2023-06-04T07:52:35;4.37;;;3.50;;
14121;SDS011;7139;48.114;11.442;2023-06-04T07:55:02;3.80;;;3.40;;
14121;SDS011;7139;48.114;11.442;2023-06-04T07:57:30;4.57;;;3.20;;
14121;SDS011;7139;48.114;11.442;2023-06-04T07:59:56;6.10;;;3.87;;
14121;SDS011;7139;48.114;11.442;2023-06-04T08:02:24;4.10;;;3.70;;
14121;SDS011;7139;48.114;11.442;2023-06-04T08:04:51;4.40;;;3.73;;
14121;SDS011;7139;48.114;11.442;2023-06-04T08:07:18;5.17;;;3.70;;
14121;SDS011;7139;48.114;11.442;2023-06-04T08:09:46;4.57;;;3.40;;
14121;SDS011;7139;48.114;11.442;2023-06-04T08:12:13;5.70;;;3.67;;
14121;SDS011;7139;48.114;11.442;2023-06-04T08:14:41;3.80;;;3.30;;
14121;SDS011;7139;48.114;11.442;2023-06-04T08:17:07;5.53;;;3.80;;
14121;SDS011;7139;48.114;11.442;2023-06-04T08:19:34;4.40;;;3.80;;
14121;SDS011;7139;48.114;11.442;2023-06-04T08:22:01;4.63;;;3.40;;
14121;SDS011;7139;48.114;11.442;2023-06-04T08:24:29;4.70;;;3.47;;
14121;SDS011;7139;48.114;11.442;2023-06-04T08:26:57;3.93;;;3.43;;
14121;SDS011;7139;48.114;11.442;2023-06-04T08:29:23;5.57;;;3.77;;
14121;SDS011;7139;48.114;11.442;2023-06-04T08:31:50;5.57;;;3.77;;
14121;SDS011;7139;48.114;11.442;2023-06-04T08:34:17;5.27;;;3.30;;
14121;SDS011;7139;48.114;11.442;2023-06-04T08:36:44;4.97;;;3.70;;
14121;SDS011;7139;48.114;11.442;2023-06-04T08:39:11;5.33;;;3.63;;
14121;SDS011;7139;48.114;11.442;2023-06-04T08:41:41;4.93;;;3.63;;
14121;SDS011;7139;48.114;11.442;2023-06-04T08:44:11;4.80;;;3.63;;
14121;SDS011;7139;48.114;11.442;2023-06-04T08:46:39;5.40;;;3.60;;
14121;SDS011;7139;48.114;11.442;2023-06-04T08:49:07;4.00;;;3.60;;
14121;SDS011;7139;48.114;11.442;2023-06-04T08:51:35;3.72;;;3.38;;
14121;SDS011;7139;48.114;11.442;2023-06-04T08:54:11;4.80;;;3.78;;
14121;SDS011;7139;48.114;11.442;2023-06-04T08:56:38;5.30;;;3.50;;
14121;SDS011;7139;48.114;11.442;2023-06-04T08:59:05;4.68;;;3.65;;
14121;SDS011;7139;48.114;11.442;2023-06-04T09:01:34;6.93;;;3.53;;
14121;SDS011;7139;48.114;11.442;2023-06-04T09:04:03;5.75;;;3.40;;
14121;SDS011;7139;48.114;11.442;2023-06-04T09:06:31;4.40;;;3.67;;
14121;SDS011;7139;48.114;11.442;2023-06-04T09:08:59;6.28;;;3.63;;
14121;SDS011;7139;48.114;11.442;2023-06-04T09:11:31;5.88;;;3.65;;
14121;SDS011;7139;48.114;11.442;2023-06-04T09:14:01;7.10;;;3.63;;
14121;SDS011;7139;48.114;11.442;2023-06-04T09:16:42;9.55;;;4.00;;
14121;SDS011;7139;48.114;11.442;2023-06-04T09:19:10;4.00;;;3.55;;
14121;SDS011;7139;48.114;11.442;2023-06-04T09:21:45;5.18;;;3.60;;
14121;SDS011;7139;48.114;11.442;2023-06-04T09:24:13;3.95;;;3.55;;
14121;SDS011;7139;48.114;11.442;2023-06-04T09:26:40;6.68;;;3.72;;
14121;SDS011;7139;48.114;11.442;2023-06-04T09:29:06;5.95;;;3.65;;
14121;SDS011;7139;48.114;11.442;2023-06-04T09:31:33;4.38;;;3.78;;
14121;SDS011;7139;48.114;11.442;2023-06-04T09:34:03;6.07;;;3.60;;
14121;SDS011;7139;48.114;11.442;2023-06-04T09:36:30;6.05;;;3.75;;
14121;SDS011;7139;48.114;11.442;2023-06-04T09:38:57;3.80;;;3.40;;
14121;SDS011;7139;48.114;11.442;2023-06-04T09:41:24;4.72;;;3.70;;
14121;SDS011;7139;48.114;11.442;2023-06-04T09:43:58;4.30;;;3.63;;
14121;SDS011;7139;48.114;11.442;2023-06-04T09:46:27;5.47;;;3.35;;
14121;SDS011;7139;48.114;11.442;2023-06-04T09:48:59;4.18;;;3.47;;
14121;SDS011;7139;48.114;11.442;2023-06-04T09:51:28;4.35;;;3.60;;
14121;SDS011;7139;48.114;11.442;2023-06-04T09:53:56;6.03;;;3.38;;
14121;SDS011;7139;48.114;11.442;2023-06-04T09:56:24;4.20;;;3.30;;
14121;SDS011;7139;48.114;11.442;2023-06-04T09:58:54;6.00;;;3.45;;
14121;SDS011;7139;48.114;11.442;2023-06-04T10:01:22;4.93;;;3.50;;
14121;SDS011;7139;48.114;11.442;2023-06-04T10:03:50;5.00;;;3.20;;
14121;SDS011;7139;48.114;11.442;2023-06-04T10:06:17;4.30;;;3.90;;
14121;SDS011;7139;48.114;11.442;2023-06-04T10:08:46;4.28;;;3.88;;
14121;SDS011;7139;48.114;11.442;2023-06-04T10:11:14;4.25;;;3.85;;
14121;SDS011;7139;48.114;11.442;2023-06-04T10:13:48;3.92;;;3.53;;
14121;SDS011;7139;48.114;11.442;2023-06-04T10:16:19;4.38;;;3.92;;
14121;SDS011;7139;48.114;11.442;2023-06-04T10:18:46;4.13;;;3.72;;
14121;SDS011;7139;48.114;11.442;2023-06-04T10:21:14;5.38;;;3.90;;
14121;SDS011;7139;48.114;11.442;2023-06-04T10:23:43;4.82;;;3.72;;
14121;SDS011;7139;48.114;11.442;2023-06-04T10:26:14;4.80;;;3.67;;
14121;SDS011;7139;48.114;11.442;2023-06-04T10:28:41;5.30;;;3.65;;
14121;SDS011;7139;48.114;11.442;2023-06-04T10:31:08;5.75;;;3.80;;
14121;SDS011;7139;48.114;11.442;2023-06-04T10:33:35;4.53;;;3.58;;
14121;SDS011;7139;48.114;11.442;2023-06-04T10:36:15;5.28;;;3.97;;
14121;SDS011;7139;48.114;11.442;2023-06-04T10:38:46;7.03;;;4.18;;
14121;SDS011;7139;48.114;11.442;2023-06-04T10:41:15;4.45;;;3.38;;
14121;SDS011;7139;48.114;11.442;2023-06-04T10:43:44;5.10;;;3.80;;
14121;SDS011;7139;48.114;11.442;2023-06-04T10:46:11;7.30;;;3.88;;
14121;SDS011;7139;48.114;11.442;2023-06-04T10:48:46;4.63;;;3.70;;
14121;SDS011;7139;48.114;11.442;2023-06-04T10:51:28;4.90;;;4.03;;
14121;SDS011;7139;48.114;11.442;2023-06-04T10:53:56;4.50;;;3.70;;
14121;SDS011;7139;48.114;11.442;2023-06-04T10:56:27;5.10;;;4.10;;
14121;SDS011;7139;48.114;11.442;2023-06-04T10:58:55;4.53;;;3.70;;
14121;SDS011;7139;48.114;11.442;2023-06-04T11:01:25;5.60;;;3.85;;
14121;SDS011;7139;48.114;11.442;2023-06-04T11:03:52;5.70;;;3.53;;
14121;SDS011;7139;48.114;11.442;2023-06-04T11:06:18;5.03;;;3.67;;
14121;SDS011;7139;48.114;11.442;2023-06-04T11:08:46;3.70;;;3.40;;
14121;SDS011;7139;48.114;11.442;2023-06-04T11:11:13;5.60;;;3.45;;
14121;SDS011;7139;48.114;11.442;2023-06-04T11:13:42;3.55;;;3.22;;
14121;SDS011;7139;48.114;11.442;2023-06-04T11:16:14;5.65;;;3.40;;
14121;SDS011;7139;48.114;11.442;2023-06-04T11:18:42;17.83;;;3.83;;
14121;SDS011;7139;48.114;11.442;2023-06-04T11:21:09;4.75;;;3.58;;
14121;SDS011;7139;48.114;11.442;2023-06-04T11:23:39;5.30;;;3.65;;
14121;SDS011;7139;48.114;11.442;2023-06-04T11:26:06;4.57;;;3.70;;
14121;SDS011;7139;48.114;11.442;2023-06-04T11:28:33;4.63;;;3.35;;
14121;SDS011;7139;48.114;11.442;2023-06-04T11:31:01;5.05;;;4.00;;
14121;SDS011;7139;48.114;11.442;2023-06-04T11:33:30;5.53;;;3.72;;
14121;SDS011;7139;48.114;11.442;2023-06-04T11:36:07;8.43;;;3.97;;
14121;SDS011;7139;48.114;11.442;2023-06-04T11:38:34;4.00;;;3.33;;
14121;SDS011;7139;48.114;11.442;2023-06-04T11:41:01;3.90;;;3.50;;
14121;SDS011;7139;48.114;11.442;2023-06-04T11:43:30;7.30;;;3.70;;
14121;SDS011;7139;48.114;11.442;2023-06-04T11:45:59;7.38;;;3.65;;
14121;SDS011;7139;48.114;11.442;2023-06-04T11:48:34;4.57;;;3.47;;
14121;SDS011;7139;48.114;11.442;2023-06-04T11:51:04;4.35;;;3.50;;
14121;SDS011;7139;48.114;11.442;2023-06-04T11:53:33;6.43;;;3.83;;
14121;SDS011;7139;48.114;11.442;2023-06-04T11:56:02;3.97;;;3.58;;
14121;SDS011;7139;48.114;11.442;2023-06-04T11:58:29;4.00;;;3.65;;
14121;SDS011;7139;48.114;11.442;2023-06-04T12:00:57;5.68;;;3.88;;
14121;SDS011;7139;48.114;11.442;2023-06-04T12:03:35;6.85;;;3.88;;
14121;SDS011;7139;48.114;11.442;2023-06-04T12:06:09;8.25;;;3.85;;
14121;SDS011;7139;48.114;11.442;2023-06-04T12:08:47;3.90;;;3.50;;
14121;SDS011;7139;48.114;11.442;2023-06-04T12:11:27;5.05;;;3.15;;
14121;SDS011;7139;48.114;11.442;2023-06-04T12:13:56;9.07;;;3.75;;
14121;SDS011;7139;48.114;11.442;2023-06-04T12:16:23;6.65;;;3.67;;
14121;SDS011;7139;48.114;11.442;2023-06-04T12:18:52;5.00;;;4.00;;
14121;SDS011;7139;48.114;11.442;2023-06-04T12:21:31;4.95;;;3.28;;
14121;SDS011;7139;48.114;11.442;2023-06-04T12:24:05;5.20;;;3.42;;
14121;SDS011;7139;48.114;11.442;2023-06-04T12:26:33;5.53;;;4.00;;
14121;SDS011;7139;48.114;11.442;2023-06-04T12:29:06;5.28;;;3.92;;
14121;SDS011;7139;48.114;11.442;2023-06-04T12:31:36;4.63;;;3.60;;
14121;SDS011;7139;48.114;11.442;2023-06-04T12:34:04;4.82;;;3.65;;
14121;SDS011;7139;48.114;11.442;2023-06-04T12:36:31;3.83;;;3.42;;
14121;SDS011;7139;48.114;11.442;2023-06-04T12:38:59;7.40;;;3.50;;
14121;SDS011;7139;48.114;11.442;2023-06-04T12:41:27;3.78;;;3.47;;
14121;SDS011;7139;48.114;11.442;2023-06-04T12:43:54;5.60;;;3.60;;
14121;SDS011;7139;48.114;11.442;2023-06-04T12:46:21;3.55;;;3.25;;
14121;SDS011;7139;48.114;11.442;2023-06-04T12:48:48;5.50;;;3.45;;
14121;SDS011;7139;48.114;11.442;2023-06-04T12:51:18;5.55;;;3.60;;
14121;SDS011;7139;48.114;11.442;2023-06-04T12:53:45;4.45;;;3.60;;
14121;SDS011;7139;48.114;11.442;2023-06-04T12:56:13;5.93;;;3.80;;
14121;SDS011;7139;48.114;11.442;2023-06-04T12:58:40;4.45;;;3.70;;
14121;SDS011;7139;48.114;11.442;2023-06-04T13:01:06;5.03;;;3.67;;
14121;SDS011;7139;48.114;11.442;2023-06-04T13:03:35;7.10;;;4.00;;
14121;SDS011;7139;48.114;11.442;2023-06-04T13:06:03;4.88;;;3.95;;
14121;SDS011;7139;48.114;11.442;2023-06-04T13:08:32;6.00;;;3.75;;
14121;SDS011;7139;48.114;11.442;2023-06-04T13:10:59;6.13;;;3.55;;
14121;SDS011;7139;48.114;11.442;2023-06-04T13:13:26;4.93;;;3.97;;
14121;SDS011;7139;48.114;11.442;2023-06-04T13:15:53;5.82;;;3.80;;
14121;SDS011;7139;48.114;11.442;2023-06-04T13:18:20;4.10;;;3.70;;
14121;SDS011;7139;48.114;11.442;2023-06-04T13:20:47;4.18;;;3.40;;
14121;SDS011;7139;48.114;11.442;2023-06-04T13:23:15;4.13;;;3.72;;
14121;SDS011;7139;48.114;11.442;2023-06-04T13:25:43;4.80;;;3.80;;
14121;SDS011;7139;48.114;11.442;2023-06-04T13:28:10;4.18;;;3.65;;
14121;SDS011;7139;48.114;11.442;2023-06-04T13:30:37;5.95;;;3.75;;
14121;SDS011;7139;48.114;11.442;2023-06-04T13:33:04;4.53;;;3.70;;
14121;SDS011;7139;48.114;11.442;2023-06-04T13:35:31;4.35;;;3.95;;
14121;SDS011;7139;48.114;11.442;2023-06-04T13:37:58;5.03;;;4.10;;
14121;SDS011;7139;48.114;11.442;2023-06-04T13:40:25;6.50;;;4.05;;
14121;SDS011;7139;48.114;11.442;2023-06-04T13:42:53;6.03;;;4.20;;
14121;SDS011;7139;48.114;11.442;2023-06-04T13:45:19;6.07;;;3.75;;
14121;SDS011;7139;48.114;11.442;2023-06-04T13:47:46;5.95;;;4.25;;
14121;SDS011;7139;48.114;11.442;2023-06-04T13:50:14;5.13;;;3.97;;
14121;SDS011;7139;48.114;11.442;2023-06-04T13:52:40;4.97;;;3.80;;
14121;SDS011;7139;48.114;11.442;2023-06-04T13:55:07;4.60;;;3.90;;
14121;SDS011;7139;48.114;11.442;2023-06-04T13:57:35;4.82;;;3.92;;
14121;SDS011;7139;48.114;11.442;2023-06-04T14:00:03;4.95;;;3.75;;
14121;SDS011;7139;48.114;11.442;2023-06-04T14:02:32;5.15;;;3.78;;
14121;SDS011;7139;48.114;11.442;2023-06-04T14:04:58;4.82;;;3.97;;
14121;SDS011;7139;48.114;11.442;2023-06-04T14:07:25;4.85;;;3.95;;
14121;SDS011;7139;48.114;11.442;2023-06-04T14:09:52;4.78;;;4.32;;
14121;SDS011;7139;48.114;11.442;2023-06-04T14:12:20;5.05;;;3.80;;
14121;SDS011;7139;48.114;11.442;2023-06-04T14:14:47;4.47;;;4.03;;
14121;SDS011;7139;48.114;11.442;2023-06-04T14:17:16;6.22;;;4.07;;
14121;SDS011;7139;48.114;11.442;2023-06-04T14:19:43;5.50;;;4.00;;
14121;SDS011;7139;48.114;11.442;2023-06-04T14:22:10;5.07;;;3.95;;
14121;SDS011;7139;48.114;11.442;2023-06-04T14:24:37;4.85;;;4.35;;
14121;SDS011;7139;48.114;11.442;2023-06-04T14:27:06;5.22;;;4.07;;
14121;SDS011;7139;48.114;11.442;2023-06-04T14:29:32;5.35;;;3.90;;
14121;SDS011;7139;48.114;11.442;2023-06-04T14:32:00;4.78;;;4.25;;
14121;SDS011;7139;48.114;11.442;2023-06-04T14:34:28;4.63;;;3.95;;
14121;SDS011;7139;48.114;11.442;2023-06-04T14:36:57;4.70;;;4.10;;
14121;SDS011;7139;48.114;11.442;2023-06-04T14:39:24;4.40;;;4.00;;
14121;SDS011;7139;48.114;11.442;2023-06-04T14:41:51;4.22;;;3.83;;
14121;SDS011;7139;48.114;11.442;2023-06-04T14:44:18;6.07;;;3.92;;
14121;SDS011;7139;48.114;11.442;2023-06-04T14:46:45;4.90;;;3.92;;
14121;SDS011;7139;48.114;11.442;2023-06-04T14:49:12;4.00;;;3.60;;
14121;SDS011;7139;48.114;11.442;2023-06-04T14:51:40;4.57;;;4.05;;
14121;SDS011;7139;48.114;11.442;2023-06-04T14:54:07;5.32;;;3.95;;